createdAt,value
2018-08-17T00:01:08.248Z,21.10
2018-08-17T00:03:36.747Z,21.10
2018-08-17T00:06:05.653Z,21.10
2018-08-17T00:08:33.673Z,21.10
2018-08-17T00:11:01.512Z,21.00
2018-08-17T00:13:29.387Z,21.00
2018-08-17T00:15:57.077Z,21.00
2018-08-17T00:18:24.918Z,21.00
2018-08-17T00:20:52.710Z,20.90
2018-08-17T00:23:20.541Z,20.90
2018-08-17T00:25:48.374Z,20.90
2018-08-17T00:28:16.028Z,20.90
2018-08-17T00:30:43.738Z,20.80
2018-08-17T00:33:12.268Z,20.80
2018-08-17T00:35:40.557Z,20.80
2018-08-17T00:38:08.964Z,20.70
2018-08-17T00:40:37.356Z,20.70
2018-08-17T00:43:06.881Z,20.70
2018-08-17T00:45:34.897Z,20.70
2018-08-17T00:48:02.695Z,20.70
2018-08-17T00:50:30.457Z,20.70
2018-08-17T00:52:58.225Z,20.70
2018-08-17T00:55:26.181Z,20.70
2018-08-17T00:57:53.837Z,20.60
2018-08-17T01:00:21.547Z,20.60
2018-08-17T01:02:49.257Z,20.60
2018-08-17T01:05:16.933Z,20.60
2018-08-17T01:07:44.601Z,20.60
2018-08-17T01:10:12.417Z,20.60
2018-08-17T01:12:40.145Z,20.60
2018-08-17T01:15:08.101Z,20.60
2018-08-17T01:17:36.473Z,20.60
2018-08-17T01:20:06.318Z,20.60
2018-08-17T01:22:34.028Z,20.50
2018-08-17T01:25:01.923Z,20.50
2018-08-17T01:27:29.690Z,20.50
2018-08-17T01:29:57.504Z,20.50
2018-08-17T01:32:25.396Z,20.40
2018-08-17T01:34:53.070Z,20.40
2018-08-17T01:37:20.746Z,20.40
2018-08-17T01:39:48.394Z,20.40
2018-08-17T01:42:16.222Z,20.40
2018-08-17T01:44:44.000Z,20.40
2018-08-17T01:47:11.932Z,20.30
2018-08-17T01:49:39.846Z,20.30
2018-08-17T01:52:07.987Z,20.30
2018-08-17T01:54:36.336Z,20.30
2018-08-17T01:57:04.115Z,20.20
2018-08-17T01:59:32.008Z,20.20
2018-08-17T02:01:59.740Z,20.20
2018-08-17T02:04:27.453Z,20.20
2018-08-17T02:06:55.158Z,20.20
2018-08-17T02:09:22.942Z,20.30
2018-08-17T02:11:50.637Z,20.40
2018-08-17T02:14:18.264Z,20.40
2018-08-17T02:16:46.120Z,20.40
2018-08-17T02:19:13.827Z,20.40
2018-08-17T02:21:41.564Z,20.40
2018-08-17T02:24:09.220Z,20.40
2018-08-17T02:26:37.026Z,20.40
2018-08-17T02:29:04.681Z,20.30
2018-08-17T02:31:32.576Z,20.30
2018-08-17T02:34:00.499Z,20.30
2018-08-17T02:36:28.223Z,20.30
2018-08-17T02:38:55.967Z,20.30
2018-08-17T02:41:23.743Z,20.20
2018-08-17T02:43:51.479Z,20.20
2018-08-17T02:46:19.465Z,20.20
2018-08-17T02:48:47.113Z,20.20
2018-08-17T02:51:14.761Z,20.10
2018-08-17T02:53:42.540Z,20.10
2018-08-17T02:56:10.229Z,20.10
2018-08-17T02:58:37.960Z,20.10
2018-08-17T03:01:05.685Z,20.10
2018-08-17T03:03:33.435Z,20.10
2018-08-17T03:06:01.269Z,20.00
2018-08-17T03:08:28.961Z,20.00
2018-08-17T03:10:56.635Z,19.90
2018-08-17T03:13:24.390Z,19.90
2018-08-17T03:15:52.251Z,19.90
2018-08-17T03:18:19.904Z,19.90
2018-08-17T03:20:47.598Z,19.80
2018-08-17T03:23:15.406Z,19.80
2018-08-17T03:25:43.146Z,19.80
2018-08-17T03:28:10.809Z,19.80
2018-08-17T03:30:38.572Z,19.70
2018-08-17T03:33:06.335Z,19.70
2018-08-17T03:35:34.086Z,19.70
2018-08-17T03:38:01.816Z,19.70
2018-08-17T03:40:29.703Z,19.70
2018-08-17T03:42:57.462Z,19.80
2018-08-17T03:45:25.376Z,19.80
2018-08-17T03:47:53.064Z,19.90
2018-08-17T03:50:20.952Z,20.00
2018-08-17T03:52:48.730Z,20.00
2018-08-17T03:55:16.494Z,20.00
2018-08-17T03:57:44.317Z,20.10
2018-08-17T04:00:12.104Z,20.20
2018-08-17T04:02:39.797Z,20.30
2018-08-17T04:05:07.648Z,20.30
2018-08-17T04:07:35.350Z,20.30
2018-08-17T04:10:03.312Z,20.40
2018-08-17T04:12:31.023Z,20.40
2018-08-17T04:14:58.709Z,20.50
2018-08-17T04:17:26.438Z,20.60
2018-08-17T04:19:54.246Z,20.60
2018-08-17T04:22:22.031Z,20.70
2018-08-17T04:24:49.681Z,20.60
2018-08-17T04:27:17.541Z,20.60
2018-08-17T04:29:45.617Z,20.60
2018-08-17T04:32:13.329Z,20.70
2018-08-17T04:34:40.982Z,20.70
2018-08-17T04:37:08.682Z,20.70
2018-08-17T04:39:36.583Z,20.70
2018-08-17T04:42:04.398Z,20.70
2018-08-17T04:44:32.233Z,20.80
2018-08-17T04:46:59.943Z,20.80
2018-08-17T04:49:27.695Z,20.90
2018-08-17T04:51:55.543Z,20.80
2018-08-17T04:54:23.396Z,20.90
2018-08-17T04:56:51.072Z,20.90
2018-08-17T04:59:18.838Z,20.90
2018-08-17T05:01:46.666Z,20.90
2018-08-17T05:04:14.322Z,21.00
2018-08-17T05:06:42.302Z,21.20
2018-08-17T05:09:10.079Z,21.30
2018-08-17T05:11:37.847Z,21.40
2018-08-17T05:14:12.568Z,21.40
2018-08-17T05:16:40.273Z,21.40
2018-08-17T05:19:08.037Z,21.50
2018-08-17T05:21:35.841Z,21.60
2018-08-17T05:24:03.566Z,22.00
2018-08-17T05:26:31.411Z,22.80
2018-08-17T05:28:59.206Z,23.90
2018-08-17T05:31:26.965Z,25.00
2018-08-17T05:33:54.704Z,25.80
2018-08-17T05:36:22.458Z,26.70
2018-08-17T05:38:50.267Z,27.40
2018-08-17T05:41:18.144Z,27.70
2018-08-17T05:43:45.890Z,28.40
2018-08-17T05:46:13.618Z,29.40
2018-08-17T05:48:41.406Z,30.30
2018-08-17T05:51:09.210Z,31.20
2018-08-17T05:53:36.926Z,32.00
2018-08-17T05:56:04.717Z,32.60
2018-08-17T05:58:32.497Z,32.90
2018-08-17T06:01:00.184Z,33.30
2018-08-17T06:03:27.933Z,33.60
2018-08-17T06:05:55.691Z,33.80
2018-08-17T06:08:23.374Z,33.90
2018-08-17T06:10:51.311Z,33.80
2018-08-17T06:13:19.126Z,33.50
2018-08-17T06:15:46.822Z,33.10
2018-08-17T06:18:14.582Z,32.70
2018-08-17T06:20:42.368Z,32.30
2018-08-17T06:23:10.089Z,31.80
2018-08-17T06:25:37.899Z,31.40
2018-08-17T06:28:05.666Z,31.20
2018-08-17T06:30:33.369Z,30.90
2018-08-17T06:33:01.145Z,30.60
2018-08-17T06:35:29.201Z,30.40
2018-08-17T06:37:57.013Z,30.50
2018-08-17T06:40:24.713Z,30.40
2018-08-17T06:42:52.578Z,30.40
2018-08-17T06:45:20.273Z,30.50
2018-08-17T06:47:48.022Z,30.80
2018-08-17T06:50:15.885Z,31.00
2018-08-17T06:52:43.735Z,31.20
2018-08-17T06:55:12.080Z,31.30
2018-08-17T06:57:40.374Z,31.40
2018-08-17T07:00:10.865Z,31.60
2018-08-17T07:02:38.781Z,31.80
2018-08-17T07:05:06.873Z,32.00
2018-08-17T07:07:34.594Z,32.10
2018-08-17T07:10:02.472Z,32.40
2018-08-17T07:12:30.329Z,32.70
2018-08-17T07:14:59.066Z,32.90
2018-08-17T07:17:26.866Z,33.30
2018-08-17T07:19:55.083Z,33.80
2018-08-17T07:22:22.886Z,33.90
2018-08-17T07:24:50.543Z,34.10
2018-08-17T07:27:18.338Z,34.50
2018-08-17T07:29:46.298Z,34.80
2018-08-17T07:32:13.942Z,35.20
2018-08-17T07:34:41.664Z,35.70
2018-08-17T07:37:09.502Z,36.00
2018-08-17T07:39:37.338Z,36.00
2018-08-17T07:42:05.230Z,36.30
2018-08-17T07:44:32.948Z,36.80
2018-08-17T07:47:00.684Z,37.20
2018-08-17T07:49:28.404Z,37.00
2018-08-17T07:51:56.181Z,36.70
2018-08-17T07:54:23.886Z,36.80
2018-08-17T07:56:51.701Z,37.20
2018-08-17T07:59:19.355Z,37.60
2018-08-17T08:01:47.043Z,38.00
2018-08-17T08:04:14.700Z,38.30
2018-08-17T08:06:42.469Z,39.00
2018-08-17T08:09:10.739Z,39.50
2018-08-17T08:11:39.880Z,40.00
2018-08-17T08:14:07.904Z,40.30
2018-08-17T08:16:35.618Z,41.20
2018-08-17T08:19:07.945Z,41.80
2018-08-17T08:21:35.979Z,42.50
2018-08-17T08:24:03.879Z,42.80
2018-08-17T08:26:31.585Z,43.60
2018-08-17T08:28:59.248Z,44.60
2018-08-17T08:31:27.409Z,45.80
2018-08-17T08:33:55.230Z,46.90
2018-08-17T08:36:22.957Z,47.20
2018-08-17T08:38:50.667Z,47.60
2018-08-17T08:41:18.455Z,48.10
2018-08-17T08:43:46.265Z,48.30
2018-08-17T08:46:14.070Z,48.50
2018-08-17T08:48:41.761Z,48.50
2018-08-17T08:51:09.471Z,48.10
2018-08-17T08:53:37.176Z,47.20
2018-08-17T08:56:05.045Z,46.10
2018-08-17T08:58:32.635Z,45.00
2018-08-17T09:01:00.459Z,44.00
2018-08-17T09:03:28.349Z,42.30
2018-08-17T09:05:56.083Z,40.40
2018-08-17T09:08:23.770Z,38.50
2018-08-17T09:10:51.479Z,36.80
2018-08-17T09:13:19.109Z,35.40
2018-08-17T09:15:46.880Z,34.40
2018-08-17T09:18:14.578Z,33.60
2018-08-17T09:20:42.400Z,33.00
2018-08-17T09:23:10.009Z,32.40
2018-08-17T09:25:37.745Z,31.80
2018-08-17T09:28:05.441Z,31.60
2018-08-17T09:30:33.157Z,31.30
2018-08-17T09:33:00.894Z,31.20
2018-08-17T09:35:28.594Z,31.00
2018-08-17T09:37:56.380Z,31.00
2018-08-17T09:40:24.166Z,31.00
2018-08-17T09:42:51.771Z,30.80
2018-08-17T09:45:19.475Z,30.60
2018-08-17T09:47:47.190Z,30.40
2018-08-17T09:50:15.434Z,30.20
2018-08-17T09:52:43.408Z,30.10
2018-08-17T09:55:11.352Z,30.10
2018-08-17T09:57:39.019Z,30.10
2018-08-17T10:00:08.547Z,30.20
2018-08-17T10:02:42.132Z,30.20
2018-08-17T10:05:15.388Z,30.20
2018-08-17T10:07:48.895Z,30.20
2018-08-17T10:10:17.462Z,30.30
2018-08-17T10:12:45.802Z,30.30
2018-08-17T10:15:13.556Z,30.30
2018-08-17T10:17:41.568Z,30.20
2018-08-17T10:20:14.555Z,30.20
2018-08-17T10:22:42.528Z,30.20
2018-08-17T10:25:14.992Z,30.20
2018-08-17T10:27:43.273Z,30.10
2018-08-17T10:30:11.082Z,30.10
2018-08-17T10:32:57.821Z,30.10
2018-08-17T10:35:33.542Z,30.10
2018-08-17T10:38:02.615Z,30.10
2018-08-17T10:40:30.333Z,30.10
2018-08-17T10:42:59.933Z,30.10
2018-08-17T10:45:28.034Z,30.10
2018-08-17T10:47:56.288Z,30.10
2018-08-17T10:50:25.476Z,30.20
2018-08-17T10:52:55.335Z,30.10
2018-08-17T10:55:28.741Z,30.10
2018-08-17T10:57:56.484Z,30.10
2018-08-17T11:00:24.156Z,30.10
2018-08-17T11:02:51.926Z,30.20
2018-08-17T11:05:19.798Z,30.10
2018-08-17T11:07:48.420Z,30.10
2018-08-17T11:10:16.092Z,30.00
2018-08-17T11:12:46.171Z,29.90
2018-08-17T11:15:14.377Z,29.80
2018-08-17T11:17:43.833Z,29.80
2018-08-17T11:20:11.777Z,29.80
2018-08-17T11:22:39.477Z,29.80
2018-08-17T11:25:07.789Z,29.80
2018-08-17T11:27:36.138Z,29.70
2018-08-17T11:30:07.332Z,29.70
2018-08-17T11:32:35.086Z,29.60
2018-08-17T11:35:02.996Z,29.70
2018-08-17T11:37:30.754Z,29.70
2018-08-17T11:40:01.397Z,29.70
2018-08-17T11:42:35.142Z,29.80
2018-08-17T11:45:04.438Z,29.80
2018-08-17T11:47:32.286Z,29.80
2018-08-17T11:50:00.057Z,29.90
2018-08-17T11:52:28.600Z,30.00
2018-08-17T11:54:56.422Z,30.00
2018-08-17T11:57:24.186Z,30.00
2018-08-17T11:59:57.805Z,30.00
2018-08-17T12:02:25.631Z,30.00
2018-08-17T12:04:53.378Z,30.00
2018-08-17T12:07:21.333Z,30.00
2018-08-17T12:09:54.454Z,30.00
2018-08-17T12:12:22.214Z,30.00
2018-08-17T12:14:49.919Z,30.00
2018-08-17T12:17:18.246Z,30.00
2018-08-17T12:19:45.926Z,30.00
2018-08-17T12:22:13.630Z,30.00
2018-08-17T12:24:41.824Z,30.00
2018-08-17T12:27:10.645Z,30.00
2018-08-17T12:29:40.618Z,30.00
2018-08-17T12:32:09.696Z,30.10
2018-08-17T12:34:39.688Z,30.20
2018-08-17T12:37:07.362Z,30.30
2018-08-17T12:39:35.204Z,30.30
2018-08-17T12:42:03.121Z,30.30
2018-08-17T12:44:31.082Z,30.30
2018-08-17T12:46:58.798Z,30.40
2018-08-17T12:49:27.226Z,30.40
2018-08-17T12:51:55.109Z,30.40
2018-08-17T12:54:40.744Z,30.50
2018-08-17T12:57:08.426Z,30.40
2018-08-17T12:59:36.125Z,30.40
2018-08-17T13:02:04.217Z,30.40
2018-08-17T13:04:31.866Z,30.40
2018-08-17T13:06:59.797Z,30.50
2018-08-17T13:09:27.603Z,30.50
2018-08-17T13:11:56.255Z,30.50
2018-08-17T13:14:24.255Z,30.60
2018-08-17T13:16:52.740Z,30.60
2018-08-17T13:19:20.572Z,30.50
2018-08-17T13:21:48.207Z,30.50
2018-08-17T13:24:16.040Z,30.50
2018-08-17T13:26:43.859Z,30.50
2018-08-17T13:29:11.628Z,30.50
2018-08-17T13:31:39.388Z,30.60
2018-08-17T13:34:07.112Z,30.60
2018-08-17T13:36:34.956Z,30.60
2018-08-17T13:39:03.160Z,30.50
2018-08-17T13:41:30.858Z,30.50
2018-08-17T13:43:58.585Z,30.50
2018-08-17T13:46:26.360Z,30.60
2018-08-17T13:48:54.274Z,30.80
2018-08-17T13:51:22.036Z,31.00
2018-08-17T13:53:49.805Z,31.00
2018-08-17T13:56:17.657Z,31.20
2018-08-17T13:58:45.613Z,31.20
2018-08-17T14:01:13.400Z,31.30
2018-08-17T14:03:41.041Z,31.40
2018-08-17T14:06:08.702Z,31.60
2018-08-17T14:08:36.475Z,31.70
2018-08-17T14:11:04.561Z,31.70
2018-08-17T14:13:32.334Z,31.60
2018-08-17T14:16:00.203Z,31.60
2018-08-17T14:18:27.959Z,31.40
2018-08-17T14:20:55.707Z,31.20
2018-08-17T14:23:23.444Z,31.00
2018-08-17T14:25:51.249Z,30.80
2018-08-17T14:28:18.979Z,30.80
2018-08-17T14:30:46.925Z,30.70
2018-08-17T14:33:14.658Z,30.70
2018-08-17T14:35:42.329Z,30.70
2018-08-17T14:38:10.177Z,30.70
2018-08-17T14:40:37.868Z,30.60
2018-08-17T14:43:05.642Z,30.50
2018-08-17T14:45:33.365Z,30.40
2018-08-17T14:48:01.270Z,30.40
2018-08-17T14:50:29.132Z,30.40
2018-08-17T14:52:57.102Z,30.40
2018-08-17T14:55:24.818Z,30.30
2018-08-17T14:57:52.633Z,30.30
2018-08-17T15:00:20.443Z,30.30
2018-08-17T15:02:48.096Z,30.30
2018-08-17T15:05:15.976Z,30.30
2018-08-17T15:07:43.812Z,30.30
2018-08-17T15:10:13.168Z,30.30
2018-08-17T15:12:41.906Z,30.30
2018-08-17T15:15:10.961Z,30.40
2018-08-17T15:17:38.692Z,30.50
2018-08-17T15:20:08.314Z,30.60
2018-08-17T15:22:36.056Z,30.60
2018-08-17T15:25:04.105Z,30.60
2018-08-17T15:27:31.785Z,30.60
2018-08-17T15:29:59.540Z,30.60
2018-08-17T15:32:27.241Z,30.60
2018-08-17T15:34:54.910Z,30.60
2018-08-17T15:37:22.637Z,30.70
2018-08-17T15:39:50.415Z,30.70
2018-08-17T15:42:18.193Z,30.60
2018-08-17T15:44:46.003Z,30.50
2018-08-17T15:47:14.045Z,30.40
2018-08-17T15:49:52.000Z,30.30
2018-08-17T15:52:19.690Z,30.20
2018-08-17T15:54:47.561Z,30.20
2018-08-17T15:57:15.294Z,30.10
2018-08-17T15:59:43.211Z,30.10
2018-08-17T16:02:10.938Z,29.90
2018-08-17T16:04:38.768Z,29.80
2018-08-17T16:07:06.586Z,29.70
2018-08-17T16:09:34.269Z,29.70
2018-08-17T16:12:02.084Z,29.60
2018-08-17T16:14:29.818Z,29.50
2018-08-17T16:16:57.633Z,29.30
2018-08-17T16:19:25.365Z,29.20
2018-08-17T16:21:53.161Z,29.10
2018-08-17T16:24:20.809Z,29.00
2018-08-17T16:26:48.557Z,28.80
2018-08-17T16:29:16.306Z,28.80
2018-08-17T16:31:44.037Z,28.80
2018-08-17T16:34:11.802Z,28.70
2018-08-17T16:36:42.111Z,28.70
2018-08-17T16:39:16.151Z,28.70
2018-08-17T16:41:44.101Z,28.60
2018-08-17T16:44:12.705Z,28.60
2018-08-17T16:46:41.656Z,28.50
2018-08-17T16:49:09.566Z,28.40
2018-08-17T16:51:37.720Z,28.30
2018-08-17T16:54:05.604Z,28.30
2018-08-17T16:56:33.453Z,28.20
2018-08-17T16:59:01.508Z,28.10
2018-08-17T17:01:29.510Z,28.10
2018-08-17T17:03:57.262Z,28.10
2018-08-17T17:06:25.208Z,27.90
2018-08-17T17:09:01.992Z,27.90
2018-08-17T17:11:29.776Z,27.80
2018-08-17T17:13:57.579Z,27.70
2018-08-17T17:16:37.971Z,27.70
2018-08-17T17:19:11.430Z,27.70
2018-08-17T17:21:40.746Z,27.60
2018-08-17T17:24:08.567Z,27.50
2018-08-17T17:26:36.307Z,27.40
2018-08-17T17:29:04.510Z,27.20
2018-08-17T17:31:32.339Z,27.10
2018-08-17T17:34:00.065Z,27.30
2018-08-17T17:36:27.813Z,27.00
2018-08-17T17:38:55.669Z,27.00
2018-08-17T17:41:23.389Z,26.90
2018-08-17T17:43:51.205Z,26.80
2018-08-17T17:46:18.937Z,26.70
2018-08-17T17:48:46.629Z,26.50
2018-08-17T17:51:14.387Z,26.40
2018-08-17T17:53:42.130Z,26.20
2018-08-17T17:56:09.960Z,26.20
2018-08-17T17:58:37.659Z,26.20
2018-08-17T18:01:06.557Z,26.10
2018-08-17T18:03:34.220Z,26.00
2018-08-17T18:06:06.018Z,25.90
2018-08-17T18:08:33.728Z,25.80
2018-08-17T18:11:01.460Z,25.80
2018-08-17T18:13:29.912Z,25.70
2018-08-17T18:15:57.628Z,25.60
2018-08-17T18:18:25.416Z,25.60
2018-08-17T18:20:53.091Z,25.50
2018-08-17T18:23:21.343Z,25.40
2018-08-17T18:25:49.221Z,25.40
2018-08-17T18:28:17.523Z,25.30
2018-08-17T18:30:45.317Z,25.30
2018-08-17T18:33:12.916Z,25.10
2018-08-17T18:35:40.662Z,25.10
2018-08-17T18:38:09.477Z,25.00
2018-08-17T18:40:37.253Z,24.80
2018-08-17T18:43:04.951Z,24.70
2018-08-17T18:45:32.734Z,24.70
2018-08-17T18:48:00.464Z,24.70
2018-08-17T18:50:28.280Z,24.60
2018-08-17T18:52:56.122Z,24.40
2018-08-17T18:55:23.934Z,24.30
2018-08-17T18:57:51.686Z,24.20
2018-08-17T19:00:19.468Z,24.20
2018-08-17T19:02:47.250Z,24.10
2018-08-17T19:05:15.086Z,24.00
2018-08-17T19:07:42.902Z,24.00
2018-08-17T19:10:10.883Z,23.90
2018-08-17T19:12:38.546Z,23.80
2018-08-17T19:15:08.953Z,23.70
2018-08-17T19:17:37.191Z,23.70
2018-08-17T19:20:07.322Z,23.70
2018-08-17T19:22:39.932Z,23.60
2018-08-17T19:25:09.479Z,23.60
2018-08-17T19:27:37.805Z,23.50
2018-08-17T19:30:21.673Z,23.50
2018-08-17T19:32:49.784Z,23.50
2018-08-17T19:35:17.964Z,23.40
2018-08-17T19:37:45.783Z,23.40
2018-08-17T19:40:13.518Z,23.30
2018-08-17T19:42:41.227Z,23.30
2018-08-17T19:45:09.042Z,23.30
2018-08-17T19:47:36.785Z,23.20
2018-08-17T19:50:04.721Z,23.20
2018-08-17T19:52:32.460Z,23.10
2018-08-17T19:55:00.156Z,23.10
2018-08-17T19:57:27.878Z,23.00
2018-08-17T19:59:55.731Z,23.00
2018-08-17T20:02:23.413Z,22.90
2018-08-17T20:04:51.118Z,22.90
2018-08-17T20:07:18.939Z,22.90
2018-08-17T20:09:46.670Z,22.80
2018-08-17T20:12:14.376Z,22.80
2018-08-17T20:14:42.200Z,22.80
2018-08-17T20:17:09.866Z,22.70
2018-08-17T20:19:43.508Z,22.70
2018-08-17T20:22:20.566Z,22.70
2018-08-17T20:24:48.852Z,22.60
2018-08-17T20:27:17.392Z,22.50
2018-08-17T20:29:45.376Z,22.50
2018-08-17T20:32:13.171Z,22.50
2018-08-17T20:34:43.723Z,22.40
2018-08-17T20:37:12.786Z,22.40
2018-08-17T20:39:41.986Z,22.40
2018-08-17T20:42:10.348Z,22.40
2018-08-17T20:44:38.077Z,22.40
2018-08-17T20:47:05.920Z,22.30
2018-08-17T20:49:33.603Z,22.30
2018-08-17T20:52:02.435Z,22.20
2018-08-17T20:54:30.718Z,22.20
2018-08-17T20:56:58.985Z,22.20
2018-08-17T20:59:26.776Z,22.10
2018-08-17T21:01:54.576Z,22.10
2018-08-17T21:04:22.248Z,22.10
2018-08-17T21:06:49.948Z,22.10
2018-08-17T21:09:17.902Z,22.10
2018-08-17T21:11:45.713Z,22.00
2018-08-17T21:14:13.513Z,22.10
2018-08-17T21:16:41.215Z,22.10
2018-08-17T21:19:08.952Z,22.00
2018-08-17T21:21:36.799Z,22.00
2018-08-17T21:24:04.502Z,22.10
2018-08-17T21:26:32.867Z,22.10
2018-08-17T21:29:01.814Z,22.10
2018-08-17T21:31:29.685Z,22.10
2018-08-17T21:33:57.357Z,22.10
2018-08-17T21:36:25.157Z,22.10
2018-08-17T21:39:11.073Z,22.10
2018-08-17T21:41:40.562Z,22.10
2018-08-17T21:44:09.947Z,22.20
2018-08-17T21:46:37.774Z,22.20
2018-08-17T21:49:05.520Z,22.10
2018-08-17T21:51:33.856Z,22.10
2018-08-17T21:54:02.573Z,22.10
2018-08-17T21:56:30.513Z,22.10
2018-08-17T21:58:58.280Z,22.10
2018-08-17T22:01:26.055Z,22.00
2018-08-17T22:03:53.764Z,22.00
2018-08-17T22:06:21.575Z,22.00
2018-08-17T22:08:49.239Z,22.00
2018-08-17T22:11:36.830Z,22.00
2018-08-17T22:14:05.426Z,22.00
2018-08-17T22:16:33.148Z,21.90
2018-08-17T22:19:02.023Z,21.90
2018-08-17T22:21:29.990Z,21.90
2018-08-17T22:23:57.690Z,21.80
2018-08-17T22:26:25.478Z,21.80
2018-08-17T22:28:53.595Z,21.70
2018-08-17T22:31:33.152Z,21.70
2018-08-17T22:34:00.948Z,21.60
2018-08-17T22:36:30.741Z,21.60
2018-08-17T22:38:58.603Z,21.50
2018-08-17T22:41:26.649Z,21.50
2018-08-17T22:43:54.817Z,21.50
2018-08-17T22:46:22.534Z,21.50
2018-08-17T22:48:50.383Z,21.40
2018-08-17T22:51:18.241Z,21.40
2018-08-17T22:53:45.913Z,21.40
2018-08-17T22:56:13.722Z,21.40
2018-08-17T22:58:47.456Z,21.30
2018-08-17T23:01:15.436Z,21.30
2018-08-17T23:03:48.944Z,21.30
2018-08-17T23:06:16.876Z,21.30
2018-08-17T23:08:44.540Z,21.30
2018-08-17T23:11:23.562Z,21.30
2018-08-17T23:13:51.454Z,21.30
2018-08-17T23:16:19.290Z,21.30
2018-08-17T23:18:47.001Z,21.30
2018-08-17T23:21:14.802Z,21.20
2018-08-17T23:23:42.551Z,21.20
2018-08-17T23:26:10.354Z,21.20
2018-08-17T23:28:38.030Z,21.20
2018-08-17T23:31:05.984Z,21.20
2018-08-17T23:33:33.654Z,21.20
2018-08-17T23:36:01.402Z,21.10
2018-08-17T23:38:29.255Z,21.10
2018-08-17T23:40:57.012Z,21.10
2018-08-17T23:43:24.690Z,21.10
2018-08-17T23:45:52.372Z,21.10
2018-08-17T23:48:20.492Z,21.00
2018-08-17T23:50:48.274Z,21.00
2018-08-17T23:53:16.144Z,21.00
2018-08-17T23:55:43.893Z,20.90
2018-08-17T23:58:11.546Z,20.90
